sensor_id;sensor_type;location;lat;lon;timestamp;P1;durP1;ratioP1;P2;durP2;ratioP2
3259;SDS011;22469;48.150;14.004;2022-10-23T00:01:36;13.83;;;12.13;;
3259;SDS011;22469;48.150;14.004;2022-10-23T00:04:11;27.43;;;11.97;;
3259;SDS011;22469;48.150;14.004;2022-10-23T00:06:44;19.53;;;13.77;;
3259;SDS011;22469;48.150;14.004;2022-10-23T00:09:14;17.20;;;12.33;;
3259;SDS011;22469;48.150;14.004;2022-10-23T00:11:44;16.90;;;11.20;;
3259;SDS011;22469;48.150;14.004;2022-10-23T00:14:17;15.03;;;11.67;;
3259;SDS011;22469;48.150;14.004;2022-10-23T00:16:48;16.43;;;11.90;;
3259;SDS011;22469;48.150;14.004;2022-10-23T00:19:15;17.20;;;12.30;;
3259;SDS011;22469;48.150;14.004;2022-10-23T00:21:43;48.37;;;15.83;;
3259;SDS011;22469;48.150;14.004;2022-10-23T00:24:10;18.60;;;13.57;;
3259;SDS011;22469;48.150;14.004;2022-10-23T00:26:37;18.77;;;14.00;;
3259;SDS011;22469;48.150;14.004;2022-10-23T00:29:06;21.10;;;14.73;;
3259;SDS011;22469;48.150;14.004;2022-10-23T00:31:35;23.53;;;15.17;;
3259;SDS011;22469;48.150;14.004;2022-10-23T00:34:03;35.73;;;20.43;;
3259;SDS011;22469;48.150;14.004;2022-10-23T00:36:34;37.73;;;16.20;;
3259;SDS011;22469;48.150;14.004;2022-10-23T00:39:02;29.43;;;16.10;;
3259;SDS011;22469;48.150;14.004;2022-10-23T00:41:30;22.50;;;14.90;;
3259;SDS011;22469;48.150;14.004;2022-10-23T00:44:06;35.83;;;17.50;;
3259;SDS011;22469;48.150;14.004;2022-10-23T00:46:33;30.30;;;16.20;;
3259;SDS011;22469;48.150;14.004;2022-10-23T00:49:03;57.57;;;19.73;;
3259;SDS011;22469;48.150;14.004;2022-10-23T00:51:39;25.50;;;15.60;;
3259;SDS011;22469;48.150;14.004;2022-10-23T00:54:11;25.83;;;13.90;;
3259;SDS011;22469;48.150;14.004;2022-10-23T00:56:50;35.73;;;17.33;;
3259;SDS011;22469;48.150;14.004;2022-10-23T00:59:22;22.93;;;16.07;;
3259;SDS011;22469;48.150;14.004;2022-10-23T01:01:49;28.37;;;18.80;;
3259;SDS011;22469;48.150;14.004;2022-10-23T01:04:17;28.33;;;15.60;;
3259;SDS011;22469;48.150;14.004;2022-10-23T01:15:00;50.87;;;17.17;;
3259;SDS011;22469;48.150;14.004;2022-10-23T01:20:29;25.03;;;13.17;;
3259;SDS011;22469;48.150;14.004;2022-10-23T01:23:55;27.83;;;15.23;;
3259;SDS011;22469;48.150;14.004;2022-10-23T01:26:32;39.93;;;15.83;;
3259;SDS011;22469;48.150;14.004;2022-10-23T01:29:09;28.07;;;15.10;;
3259;SDS011;22469;48.150;14.004;2022-10-23T01:31:48;41.70;;;15.80;;
3259;SDS011;22469;48.150;14.004;2022-10-23T01:37:18;58.03;;;17.37;;
3259;SDS011;22469;48.150;14.004;2022-10-23T01:39:52;34.17;;;16.73;;
3259;SDS011;22469;48.150;14.004;2022-10-23T01:42:26;32.10;;;16.50;;
3259;SDS011;22469;48.150;14.004;2022-10-23T01:45:03;36.57;;;18.30;;
3259;SDS011;22469;48.150;14.004;2022-10-23T01:47:41;41.20;;;17.50;;
3259;SDS011;22469;48.150;14.004;2022-10-23T01:50:12;45.83;;;18.23;;
3259;SDS011;22469;48.150;14.004;2022-10-23T01:52:41;48.70;;;18.07;;
3259;SDS011;22469;48.150;14.004;2022-10-23T01:55:08;36.30;;;17.27;;
3259;SDS011;22469;48.150;14.004;2022-10-23T01:57:38;42.27;;;18.80;;
3259;SDS011;22469;48.150;14.004;2022-10-23T02:00:11;34.77;;;17.57;;
3259;SDS011;22469;48.150;14.004;2022-10-23T02:02:41;36.23;;;17.30;;
3259;SDS011;22469;48.150;14.004;2022-10-23T02:05:21;32.60;;;15.67;;
3259;SDS011;22469;48.150;14.004;2022-10-23T02:07:52;41.13;;;19.10;;
3259;SDS011;22469;48.150;14.004;2022-10-23T02:10:20;38.90;;;17.30;;
3259;SDS011;22469;48.150;14.004;2022-10-23T02:13:02;29.30;;;15.77;;
3259;SDS011;22469;48.150;14.004;2022-10-23T02:15:45;59.40;;;15.80;;
3259;SDS011;22469;48.150;14.004;2022-10-23T02:18:35;46.43;;;15.53;;
3259;SDS011;22469;48.150;14.004;2022-10-23T02:21:46;18.03;;;13.70;;
3259;SDS011;22469;48.150;14.004;2022-10-23T02:24:26;27.77;;;13.80;;
3259;SDS011;22469;48.150;14.004;2022-10-23T02:27:00;39.63;;;18.60;;
3259;SDS011;22469;48.150;14.004;2022-10-23T02:29:34;48.90;;;18.70;;
3259;SDS011;22469;48.150;14.004;2022-10-23T02:32:15;27.90;;;15.80;;
3259;SDS011;22469;48.150;14.004;2022-10-23T02:34:45;25.90;;;15.00;;
3259;SDS011;22469;48.150;14.004;2022-10-23T02:37:13;24.13;;;13.93;;
3259;SDS011;22469;48.150;14.004;2022-10-23T02:39:41;42.57;;;16.43;;
3259;SDS011;22469;48.150;14.004;2022-10-23T02:42:16;24.40;;;14.50;;
3259;SDS011;22469;48.150;14.004;2022-10-23T02:45:08;38.43;;;14.50;;
3259;SDS011;22469;48.150;14.004;2022-10-23T02:47:59;25.63;;;13.30;;
3259;SDS011;22469;48.150;14.004;2022-10-23T02:56:52;23.67;;;14.77;;
3259;SDS011;22469;48.150;14.004;2022-10-23T02:59:43;21.60;;;15.53;;
3259;SDS011;22469;48.150;14.004;2022-10-23T03:02:21;34.57;;;16.10;;
3259;SDS011;22469;48.150;14.004;2022-10-23T03:04:53;21.47;;;15.60;;
3259;SDS011;22469;48.150;14.004;2022-10-23T03:07:24;23.57;;;14.87;;
3259;SDS011;22469;48.150;14.004;2022-10-23T03:09:51;26.03;;;15.00;;
3259;SDS011;22469;48.150;14.004;2022-10-23T03:12:18;24.30;;;16.60;;
3259;SDS011;22469;48.150;14.004;2022-10-23T03:14:45;24.63;;;15.60;;
3259;SDS011;22469;48.150;14.004;2022-10-23T03:17:12;27.60;;;17.37;;
3259;SDS011;22469;48.150;14.004;2022-10-23T03:19:39;21.70;;;16.60;;
3259;SDS011;22469;48.150;14.004;2022-10-23T03:22:06;30.90;;;16.87;;
3259;SDS011;22469;48.150;14.004;2022-10-23T03:24:33;29.17;;;16.40;;
3259;SDS011;22469;48.150;14.004;2022-10-23T03:27:00;41.73;;;16.80;;
3259;SDS011;22469;48.150;14.004;2022-10-23T03:29:27;34.30;;;15.10;;
3259;SDS011;22469;48.150;14.004;2022-10-23T03:31:54;28.87;;;13.67;;
3259;SDS011;22469;48.150;14.004;2022-10-23T03:34:21;33.40;;;14.33;;
3259;SDS011;22469;48.150;14.004;2022-10-23T03:36:48;23.07;;;15.80;;
3259;SDS011;22469;48.150;14.004;2022-10-23T03:39:16;31.33;;;15.10;;
3259;SDS011;22469;48.150;14.004;2022-10-23T03:41:43;31.03;;;15.63;;
3259;SDS011;22469;48.150;14.004;2022-10-23T03:44:10;36.50;;;15.50;;
3259;SDS011;22469;48.150;14.004;2022-10-23T03:46:37;26.07;;;14.50;;
3259;SDS011;22469;48.150;14.004;2022-10-23T03:49:04;30.20;;;14.30;;
3259;SDS011;22469;48.150;14.004;2022-10-23T03:51:31;26.13;;;13.27;;
3259;SDS011;22469;48.150;14.004;2022-10-23T03:53:58;27.70;;;14.40;;
3259;SDS011;22469;48.150;14.004;2022-10-23T03:56:25;27.93;;;12.67;;
3259;SDS011;22469;48.150;14.004;2022-10-23T03:58:52;16.63;;;12.23;;
3259;SDS011;22469;48.150;14.004;2022-10-23T04:01:19;15.77;;;12.33;;
3259;SDS011;22469;48.150;14.004;2022-10-23T04:03:46;20.43;;;13.10;;
3259;SDS011;22469;48.150;14.004;2022-10-23T04:06:13;20.57;;;13.67;;
3259;SDS011;22469;48.150;14.004;2022-10-23T04:08:44;16.57;;;12.93;;
3259;SDS011;22469;48.150;14.004;2022-10-23T04:11:11;14.63;;;13.27;;
3259;SDS011;22469;48.150;14.004;2022-10-23T04:13:38;13.67;;;12.27;;
3259;SDS011;22469;48.150;14.004;2022-10-23T04:16:05;12.03;;;10.93;;
3259;SDS011;22469;48.150;14.004;2022-10-23T04:18:32;13.50;;;11.30;;
3259;SDS011;22469;48.150;14.004;2022-10-23T04:20:59;11.93;;;10.87;;
3259;SDS011;22469;48.150;14.004;2022-10-23T04:23:26;11.37;;;10.40;;
3259;SDS011;22469;48.150;14.004;2022-10-23T04:25:56;12.17;;;11.07;;
3259;SDS011;22469;48.150;14.004;2022-10-23T04:28:24;12.90;;;10.07;;
3259;SDS011;22469;48.150;14.004;2022-10-23T04:30:51;12.50;;;11.33;;
3259;SDS011;22469;48.150;14.004;2022-10-23T04:33:18;11.70;;;9.80;;
3259;SDS011;22469;48.150;14.004;2022-10-23T04:35:45;14.20;;;9.60;;
3259;SDS011;22469;48.150;14.004;2022-10-23T04:38:12;15.03;;;10.43;;
3259;SDS011;22469;48.150;14.004;2022-10-23T04:40:39;13.13;;;10.20;;
3259;SDS011;22469;48.150;14.004;2022-10-23T04:43:06;15.97;;;10.30;;
3259;SDS011;22469;48.150;14.004;2022-10-23T04:45:33;16.33;;;11.13;;
3259;SDS011;22469;48.150;14.004;2022-10-23T04:48:00;17.63;;;11.03;;
3259;SDS011;22469;48.150;14.004;2022-10-23T04:50:27;23.00;;;12.40;;
3259;SDS011;22469;48.150;14.004;2022-10-23T04:52:55;14.57;;;11.27;;
3259;SDS011;22469;48.150;14.004;2022-10-23T04:55:23;16.77;;;10.43;;
3259;SDS011;22469;48.150;14.004;2022-10-23T04:57:51;27.93;;;10.97;;
3259;SDS011;22469;48.150;14.004;2022-10-23T05:00:18;21.40;;;11.90;;
3259;SDS011;22469;48.150;14.004;2022-10-23T05:02:45;12.10;;;10.37;;
3259;SDS011;22469;48.150;14.004;2022-10-23T05:05:12;16.17;;;10.20;;
3259;SDS011;22469;48.150;14.004;2022-10-23T05:07:39;19.83;;;10.40;;
3259;SDS011;22469;48.150;14.004;2022-10-23T05:10:07;15.93;;;11.10;;
3259;SDS011;22469;48.150;14.004;2022-10-23T05:12:34;22.40;;;11.17;;
3259;SDS011;22469;48.150;14.004;2022-10-23T05:15:01;11.87;;;10.73;;
3259;SDS011;22469;48.150;14.004;2022-10-23T05:17:31;19.53;;;11.70;;
3259;SDS011;22469;48.150;14.004;2022-10-23T05:20:04;20.70;;;10.63;;
3259;SDS011;22469;48.150;14.004;2022-10-23T05:22:38;24.80;;;13.03;;
3259;SDS011;22469;48.150;14.004;2022-10-23T05:25:08;23.90;;;10.73;;
3259;SDS011;22469;48.150;14.004;2022-10-23T05:27:36;12.83;;;11.17;;
3259;SDS011;22469;48.150;14.004;2022-10-23T05:30:03;13.57;;;10.30;;
3259;SDS011;22469;48.150;14.004;2022-10-23T05:32:31;12.53;;;9.70;;
3259;SDS011;22469;48.150;14.004;2022-10-23T05:35:01;16.03;;;11.07;;
3259;SDS011;22469;48.150;14.004;2022-10-23T05:37:37;16.57;;;12.03;;
3259;SDS011;22469;48.150;14.004;2022-10-23T05:40:08;28.07;;;12.07;;
3259;SDS011;22469;48.150;14.004;2022-10-23T05:42:36;22.13;;;13.00;;
3259;SDS011;22469;48.150;14.004;2022-10-23T05:45:07;13.90;;;12.37;;
3259;SDS011;22469;48.150;14.004;2022-10-23T05:47:35;15.33;;;10.67;;
3259;SDS011;22469;48.150;14.004;2022-10-23T05:50:02;14.80;;;12.13;;
3259;SDS011;22469;48.150;14.004;2022-10-23T05:52:30;22.80;;;12.67;;
3259;SDS011;22469;48.150;14.004;2022-10-23T05:54:56;18.43;;;11.00;;
3259;SDS011;22469;48.150;14.004;2022-10-23T05:57:23;14.20;;;12.47;;
3259;SDS011;22469;48.150;14.004;2022-10-23T05:59:50;26.40;;;14.17;;
3259;SDS011;22469;48.150;14.004;2022-10-23T06:02:17;19.93;;;13.10;;
3259;SDS011;22469;48.150;14.004;2022-10-23T06:04:45;15.27;;;13.47;;
3259;SDS011;22469;48.150;14.004;2022-10-23T06:07:12;18.80;;;13.30;;
3259;SDS011;22469;48.150;14.004;2022-10-23T06:09:39;19.93;;;11.13;;
3259;SDS011;22469;48.150;14.004;2022-10-23T06:12:05;23.53;;;13.60;;
3259;SDS011;22469;48.150;14.004;2022-10-23T06:14:33;28.30;;;13.97;;
3259;SDS011;22469;48.150;14.004;2022-10-23T06:16:59;19.03;;;14.10;;
3259;SDS011;22469;48.150;14.004;2022-10-23T06:19:27;27.60;;;14.80;;
3259;SDS011;22469;48.150;14.004;2022-10-23T06:21:53;23.73;;;11.40;;
3259;SDS011;22469;48.150;14.004;2022-10-23T06:24:20;18.47;;;12.23;;
3259;SDS011;22469;48.150;14.004;2022-10-23T06:26:47;27.03;;;13.47;;
3259;SDS011;22469;48.150;14.004;2022-10-23T06:29:14;18.43;;;12.70;;
3259;SDS011;22469;48.150;14.004;2022-10-23T06:31:41;24.20;;;14.30;;
3259;SDS011;22469;48.150;14.004;2022-10-23T06:34:09;27.13;;;13.20;;
3259;SDS011;22469;48.150;14.004;2022-10-23T06:36:37;19.80;;;12.80;;
3259;SDS011;22469;48.150;14.004;2022-10-23T06:39:05;20.00;;;14.17;;
3259;SDS011;22469;48.150;14.004;2022-10-23T06:41:32;35.43;;;12.60;;
3259;SDS011;22469;48.150;14.004;2022-10-23T06:43:59;34.93;;;13.17;;
3259;SDS011;22469;48.150;14.004;2022-10-23T06:46:27;31.57;;;13.27;;
3259;SDS011;22469;48.150;14.004;2022-10-23T06:48:55;37.93;;;13.70;;
3259;SDS011;22469;48.150;14.004;2022-10-23T06:51:22;32.43;;;12.40;;
3259;SDS011;22469;48.150;14.004;2022-10-23T06:53:50;36.60;;;13.13;;
3259;SDS011;22469;48.150;14.004;2022-10-23T06:56:17;26.47;;;13.20;;
3259;SDS011;22469;48.150;14.004;2022-10-23T06:58:44;34.20;;;13.57;;
3259;SDS011;22469;48.150;14.004;2022-10-23T07:01:11;60.07;;;15.87;;
3259;SDS011;22469;48.150;14.004;2022-10-23T07:03:39;24.30;;;12.93;;
3259;SDS011;22469;48.150;14.004;2022-10-23T07:06:08;32.70;;;19.27;;
3259;SDS011;22469;48.150;14.004;2022-10-23T07:08:36;34.57;;;16.43;;
3259;SDS011;22469;48.150;14.004;2022-10-23T07:11:04;49.70;;;18.30;;
3259;SDS011;22469;48.150;14.004;2022-10-23T07:13:36;30.20;;;15.33;;
3259;SDS011;22469;48.150;14.004;2022-10-23T07:16:18;48.80;;;16.33;;
3259;SDS011;22469;48.150;14.004;2022-10-23T07:18:48;28.23;;;15.23;;
3259;SDS011;22469;48.150;14.004;2022-10-23T07:21:25;24.40;;;13.90;;
3259;SDS011;22469;48.150;14.004;2022-10-23T07:23:55;28.17;;;17.50;;
3259;SDS011;22469;48.150;14.004;2022-10-23T07:26:23;38.93;;;16.97;;
3259;SDS011;22469;48.150;14.004;2022-10-23T07:28:50;35.33;;;17.10;;
3259;SDS011;22469;48.150;14.004;2022-10-23T07:31:20;28.07;;;16.43;;
3259;SDS011;22469;48.150;14.004;2022-10-23T07:33:53;47.43;;;17.00;;
3259;SDS011;22469;48.150;14.004;2022-10-23T07:36:20;27.20;;;16.50;;
3259;SDS011;22469;48.150;14.004;2022-10-23T07:38:47;26.90;;;17.77;;
3259;SDS011;22469;48.150;14.004;2022-10-23T07:41:16;34.43;;;17.17;;
3259;SDS011;22469;48.150;14.004;2022-10-23T07:43:43;35.20;;;17.87;;
3259;SDS011;22469;48.150;14.004;2022-10-23T07:46:10;29.80;;;17.80;;
3259;SDS011;22469;48.150;14.004;2022-10-23T07:48:38;30.60;;;18.30;;
3259;SDS011;22469;48.150;14.004;2022-10-23T07:51:07;51.67;;;20.63;;
3259;SDS011;22469;48.150;14.004;2022-10-23T07:53:39;35.93;;;21.30;;
3259;SDS011;22469;48.150;14.004;2022-10-23T07:56:12;34.07;;;21.30;;
3259;SDS011;22469;48.150;14.004;2022-10-23T07:58:49;34.67;;;19.03;;
3259;SDS011;22469;48.150;14.004;2022-10-23T08:01:24;35.50;;;21.20;;
3259;SDS011;22469;48.150;14.004;2022-10-23T08:03:57;35.27;;;20.43;;
3259;SDS011;22469;48.150;14.004;2022-10-23T08:06:25;32.47;;;21.70;;
3259;SDS011;22469;48.150;14.004;2022-10-23T08:08:52;41.07;;;22.37;;
3259;SDS011;22469;48.150;14.004;2022-10-23T08:11:20;45.57;;;22.30;;
3259;SDS011;22469;48.150;14.004;2022-10-23T08:13:54;43.30;;;21.00;;
3259;SDS011;22469;48.150;14.004;2022-10-23T08:16:23;39.30;;;22.20;;
3259;SDS011;22469;48.150;14.004;2022-10-23T08:18:51;34.80;;;20.87;;
3259;SDS011;22469;48.150;14.004;2022-10-23T08:21:18;33.30;;;23.30;;
3259;SDS011;22469;48.150;14.004;2022-10-23T08:23:45;38.90;;;23.03;;
3259;SDS011;22469;48.150;14.004;2022-10-23T08:26:12;40.17;;;23.03;;
3259;SDS011;22469;48.150;14.004;2022-10-23T08:28:40;31.27;;;22.13;;
3259;SDS011;22469;48.150;14.004;2022-10-23T08:31:08;30.53;;;21.57;;
3259;SDS011;22469;48.150;14.004;2022-10-23T08:33:38;33.67;;;20.17;;
3259;SDS011;22469;48.150;14.004;2022-10-23T08:36:13;29.93;;;21.00;;
3259;SDS011;22469;48.150;14.004;2022-10-23T08:38:44;33.70;;;21.27;;
3259;SDS011;22469;48.150;14.004;2022-10-23T08:41:26;24.60;;;18.70;;
3259;SDS011;22469;48.150;14.004;2022-10-23T08:44:12;30.90;;;19.77;;
3259;SDS011;22469;48.150;14.004;2022-10-23T08:46:50;27.80;;;19.17;;
3259;SDS011;22469;48.150;14.004;2022-10-23T08:52:24;22.67;;;16.80;;
3259;SDS011;22469;48.150;14.004;2022-10-23T08:55:20;18.17;;;14.30;;
3259;SDS011;22469;48.150;14.004;2022-10-23T08:58:05;18.10;;;14.67;;
3259;SDS011;22469;48.150;14.004;2022-10-23T09:00:45;19.57;;;16.63;;
3259;SDS011;22469;48.150;14.004;2022-10-23T09:03:13;19.27;;;16.43;;
3259;SDS011;22469;48.150;14.004;2022-10-23T09:06:05;20.73;;;15.13;;
3259;SDS011;22469;48.150;14.004;2022-10-23T09:12:16;22.03;;;18.00;;
3259;SDS011;22469;48.150;14.004;2022-10-23T09:14:39;20.10;;;16.30;;
3259;SDS011;22469;48.150;14.004;2022-10-23T09:17:28;17.00;;;13.73;;
3259;SDS011;22469;48.150;14.004;2022-10-23T09:22:56;14.27;;;12.97;;
3259;SDS011;22469;48.150;14.004;2022-10-23T09:25:28;15.47;;;13.80;;
3259;SDS011;22469;48.150;14.004;2022-10-23T09:28:00;14.33;;;12.83;;
3259;SDS011;22469;48.150;14.004;2022-10-23T09:30:38;15.53;;;13.10;;
3259;SDS011;22469;48.150;14.004;2022-10-23T09:35:50;16.80;;;14.07;;
3259;SDS011;22469;48.150;14.004;2022-10-23T09:38:24;15.63;;;14.00;;
3259;SDS011;22469;48.150;14.004;2022-10-23T09:41:29;16.70;;;12.77;;
3259;SDS011;22469;48.150;14.004;2022-10-23T09:44:19;17.00;;;14.53;;
3259;SDS011;22469;48.150;14.004;2022-10-23T09:46:59;16.87;;;15.17;;
3259;SDS011;22469;48.150;14.004;2022-10-23T09:49:34;24.00;;;15.17;;
3259;SDS011;22469;48.150;14.004;2022-10-23T09:54:43;15.10;;;13.50;;
3259;SDS011;22469;48.150;14.004;2022-10-23T09:57:22;13.93;;;12.43;;
3259;SDS011;22469;48.150;14.004;2022-10-23T10:03:19;13.23;;;11.93;;
3259;SDS011;22469;48.150;14.004;2022-10-23T10:06:22;12.93;;;11.63;;
3259;SDS011;22469;48.150;14.004;2022-10-23T10:08:52;18.47;;;15.07;;
3259;SDS011;22469;48.150;14.004;2022-10-23T10:23:41;13.23;;;12.03;;
3259;SDS011;22469;48.150;14.004;2022-10-23T10:29:11;14.17;;;12.53;;
3259;SDS011;22469;48.150;14.004;2022-10-23T10:34:55;14.77;;;13.27;;
3259;SDS011;22469;48.150;14.004;2022-10-23T10:38:10;13.10;;;11.80;;
3259;SDS011;22469;48.150;14.004;2022-10-23T10:52:17;12.73;;;11.57;;
3259;SDS011;22469;48.150;14.004;2022-10-23T10:55:02;11.37;;;10.23;;
3259;SDS011;22469;48.150;14.004;2022-10-23T10:57:56;11.20;;;10.10;;
3259;SDS011;22469;48.150;14.004;2022-10-23T11:00:48;12.33;;;11.00;;
3259;SDS011;22469;48.150;14.004;2022-10-23T11:06:10;15.60;;;13.97;;
3259;SDS011;22469;48.150;14.004;2022-10-23T11:08:44;15.07;;;13.67;;
3259;SDS011;22469;48.150;14.004;2022-10-23T11:11:34;16.30;;;14.60;;
3259;SDS011;22469;48.150;14.004;2022-10-23T11:14:17;15.17;;;13.73;;
3259;SDS011;22469;48.150;14.004;2022-10-23T11:19:54;13.47;;;12.10;;
3259;SDS011;22469;48.150;14.004;2022-10-23T11:22:36;10.73;;;9.80;;
3259;SDS011;22469;48.150;14.004;2022-10-23T11:28:17;7.57;;;6.97;;
3259;SDS011;22469;48.150;14.004;2022-10-23T11:34:38;6.40;;;5.93;;
3259;SDS011;22469;48.150;14.004;2022-10-23T11:37:33;7.27;;;6.70;;
3259;SDS011;22469;48.150;14.004;2022-10-23T11:48:18;6.23;;;5.63;;
3259;SDS011;22469;48.150;14.004;2022-10-23T11:51:04;6.47;;;5.97;;
3259;SDS011;22469;48.150;14.004;2022-10-23T11:56:22;5.80;;;5.20;;
3259;SDS011;22469;48.150;14.004;2022-10-23T11:58:53;6.33;;;5.83;;
3259;SDS011;22469;48.150;14.004;2022-10-23T12:01:28;6.60;;;5.10;;
3259;SDS011;22469;48.150;14.004;2022-10-23T12:04:15;7.43;;;6.20;;
3259;SDS011;22469;48.150;14.004;2022-10-23T12:06:54;5.97;;;5.57;;
3259;SDS011;22469;48.150;14.004;2022-10-23T12:09:40;4.83;;;4.53;;
3259;SDS011;22469;48.150;14.004;2022-10-23T12:14:41;5.10;;;4.80;;
3259;SDS011;22469;48.150;14.004;2022-10-23T12:19:53;5.13;;;4.73;;
3259;SDS011;22469;48.150;14.004;2022-10-23T12:37:33;3.67;;;3.57;;
3259;SDS011;22469;48.150;14.004;2022-10-23T12:40:29;4.07;;;3.77;;
3259;SDS011;22469;48.150;14.004;2022-10-23T12:42:57;4.17;;;3.77;;
3259;SDS011;22469;48.150;14.004;2022-10-23T12:45:29;3.47;;;3.37;;
3259;SDS011;22469;48.150;14.004;2022-10-23T12:48:02;3.90;;;3.70;;
3259;SDS011;22469;48.150;14.004;2022-10-23T12:50:30;4.37;;;4.03;;
3259;SDS011;22469;48.150;14.004;2022-10-23T12:53:01;3.67;;;3.47;;
3259;SDS011;22469;48.150;14.004;2022-10-23T12:58:37;3.57;;;3.30;;
3259;SDS011;22469;48.150;14.004;2022-10-23T13:01:25;3.90;;;3.70;;
3259;SDS011;22469;48.150;14.004;2022-10-23T13:04:07;4.43;;;4.20;;
3259;SDS011;22469;48.150;14.004;2022-10-23T13:06:56;4.50;;;4.10;;
3259;SDS011;22469;48.150;14.004;2022-10-23T13:09:28;5.00;;;4.50;;
3259;SDS011;22469;48.150;14.004;2022-10-23T13:11:56;4.60;;;4.23;;
3259;SDS011;22469;48.150;14.004;2022-10-23T13:14:30;4.67;;;4.40;;
3259;SDS011;22469;48.150;14.004;2022-10-23T13:17:08;4.07;;;3.87;;
3259;SDS011;22469;48.150;14.004;2022-10-23T13:19:37;4.50;;;4.20;;
3259;SDS011;22469;48.150;14.004;2022-10-23T13:22:14;4.60;;;4.20;;
3259;SDS011;22469;48.150;14.004;2022-10-23T13:24:46;4.40;;;4.00;;
3259;SDS011;22469;48.150;14.004;2022-10-23T13:27:23;4.13;;;3.73;;
3259;SDS011;22469;48.150;14.004;2022-10-23T13:29:58;4.30;;;4.10;;
3259;SDS011;22469;48.150;14.004;2022-10-23T13:32:27;6.10;;;3.37;;
3259;SDS011;22469;48.150;14.004;2022-10-23T13:34:56;4.37;;;4.07;;
3259;SDS011;22469;48.150;14.004;2022-10-23T13:37:35;3.83;;;3.53;;
3259;SDS011;22469;48.150;14.004;2022-10-23T13:40:04;4.00;;;3.60;;
3259;SDS011;22469;48.150;14.004;2022-10-23T13:42:43;5.27;;;4.20;;
3259;SDS011;22469;48.150;14.004;2022-10-23T13:45:12;5.80;;;4.00;;
3259;SDS011;22469;48.150;14.004;2022-10-23T13:47:48;4.17;;;3.87;;
3259;SDS011;22469;48.150;14.004;2022-10-23T13:50:16;5.03;;;4.43;;
3259;SDS011;22469;48.150;14.004;2022-10-23T13:52:44;3.73;;;3.53;;
3259;SDS011;22469;48.150;14.004;2022-10-23T13:55:20;4.60;;;4.37;;
3259;SDS011;22469;48.150;14.004;2022-10-23T13:57:49;5.50;;;5.00;;
3259;SDS011;22469;48.150;14.004;2022-10-23T14:00:17;5.80;;;5.30;;
3259;SDS011;22469;48.150;14.004;2022-10-23T14:02:44;5.57;;;5.27;;
3259;SDS011;22469;48.150;14.004;2022-10-23T14:05:11;8.50;;;7.90;;
3259;SDS011;22469;48.150;14.004;2022-10-23T14:07:38;4.40;;;4.10;;
3259;SDS011;22469;48.150;14.004;2022-10-23T14:10:06;4.70;;;4.40;;
3259;SDS011;22469;48.150;14.004;2022-10-23T14:12:40;5.63;;;5.20;;
3259;SDS011;22469;48.150;14.004;2022-10-23T14:15:09;5.27;;;4.77;;
3259;SDS011;22469;48.150;14.004;2022-10-23T14:17:37;6.70;;;6.20;;
3259;SDS011;22469;48.150;14.004;2022-10-23T14:20:05;5.30;;;5.00;;
3259;SDS011;22469;48.150;14.004;2022-10-23T14:22:33;4.80;;;4.40;;
3259;SDS011;22469;48.150;14.004;2022-10-23T14:25:00;4.87;;;4.57;;
3259;SDS011;22469;48.150;14.004;2022-10-23T14:27:27;5.70;;;5.30;;
3259;SDS011;22469;48.150;14.004;2022-10-23T14:29:55;5.40;;;4.90;;
3259;SDS011;22469;48.150;14.004;2022-10-23T14:32:22;4.70;;;4.40;;
3259;SDS011;22469;48.150;14.004;2022-10-23T14:34:50;5.60;;;5.30;;
3259;SDS011;22469;48.150;14.004;2022-10-23T14:37:19;5.40;;;5.10;;
3259;SDS011;22469;48.150;14.004;2022-10-23T14:39:47;5.33;;;4.73;;
3259;SDS011;22469;48.150;14.004;2022-10-23T14:42:15;5.20;;;4.90;;
3259;SDS011;22469;48.150;14.004;2022-10-23T14:44:43;4.30;;;4.10;;
3259;SDS011;22469;48.150;14.004;2022-10-23T14:47:10;5.63;;;4.53;;
3259;SDS011;22469;48.150;14.004;2022-10-23T14:49:37;4.70;;;4.40;;
3259;SDS011;22469;48.150;14.004;2022-10-23T14:52:05;4.83;;;4.47;;
3259;SDS011;22469;48.150;14.004;2022-10-23T14:54:34;5.27;;;4.87;;
3259;SDS011;22469;48.150;14.004;2022-10-23T14:57:02;5.50;;;5.10;;
3259;SDS011;22469;48.150;14.004;2022-10-23T14:59:29;5.00;;;4.60;;
3259;SDS011;22469;48.150;14.004;2022-10-23T15:01:56;5.23;;;4.70;;
3259;SDS011;22469;48.150;14.004;2022-10-23T15:04:23;4.40;;;4.13;;
3259;SDS011;22469;48.150;14.004;2022-10-23T15:06:51;5.13;;;4.83;;
3259;SDS011;22469;48.150;14.004;2022-10-23T15:09:18;4.50;;;4.30;;
3259;SDS011;22469;48.150;14.004;2022-10-23T15:11:45;5.20;;;4.90;;
3259;SDS011;22469;48.150;14.004;2022-10-23T15:14:13;4.67;;;4.30;;
3259;SDS011;22469;48.150;14.004;2022-10-23T15:16:40;5.20;;;4.83;;
3259;SDS011;22469;48.150;14.004;2022-10-23T15:19:10;5.10;;;4.70;;
3259;SDS011;22469;48.150;14.004;2022-10-23T15:21:44;6.07;;;4.90;;
3259;SDS011;22469;48.150;14.004;2022-10-23T15:24:13;6.00;;;5.40;;
3259;SDS011;22469;48.150;14.004;2022-10-23T15:26:41;6.17;;;4.60;;
3259;SDS011;22469;48.150;14.004;2022-10-23T15:29:09;5.50;;;5.13;;
3259;SDS011;22469;48.150;14.004;2022-10-23T15:34:09;5.03;;;4.73;;
3259;SDS011;22469;48.150;14.004;2022-10-23T15:36:43;4.00;;;3.80;;
3259;SDS011;22469;48.150;14.004;2022-10-23T15:39:13;7.50;;;4.53;;
3259;SDS011;22469;48.150;14.004;2022-10-23T15:41:49;5.20;;;4.80;;
3259;SDS011;22469;48.150;14.004;2022-10-23T15:44:19;5.97;;;5.33;;
3259;SDS011;22469;48.150;14.004;2022-10-23T15:46:50;4.80;;;4.60;;
3259;SDS011;22469;48.150;14.004;2022-10-23T15:49:18;4.67;;;4.37;;
3259;SDS011;22469;48.150;14.004;2022-10-23T15:51:45;6.20;;;5.70;;
3259;SDS011;22469;48.150;14.004;2022-10-23T15:54:13;6.07;;;5.67;;
3259;SDS011;22469;48.150;14.004;2022-10-23T15:56:42;4.83;;;4.53;;
3259;SDS011;22469;48.150;14.004;2022-10-23T15:59:14;5.43;;;3.73;;
3259;SDS011;22469;48.150;14.004;2022-10-23T16:01:43;4.73;;;4.43;;
3259;SDS011;22469;48.150;14.004;2022-10-23T16:04:10;6.20;;;5.70;;
3259;SDS011;22469;48.150;14.004;2022-10-23T16:06:38;5.50;;;5.20;;
3259;SDS011;22469;48.150;14.004;2022-10-23T16:09:05;8.83;;;6.63;;
3259;SDS011;22469;48.150;14.004;2022-10-23T16:11:33;6.53;;;6.13;;
3259;SDS011;22469;48.150;14.004;2022-10-23T16:14:03;6.77;;;6.20;;
3259;SDS011;22469;48.150;14.004;2022-10-23T16:16:32;6.90;;;6.30;;
3259;SDS011;22469;48.150;14.004;2022-10-23T16:19:00;6.10;;;5.70;;
3259;SDS011;22469;48.150;14.004;2022-10-23T16:21:33;7.90;;;6.60;;
3259;SDS011;22469;48.150;14.004;2022-10-23T16:24:02;8.30;;;7.63;;
3259;SDS011;22469;48.150;14.004;2022-10-23T16:26:32;14.73;;;7.27;;
3259;SDS011;22469;48.150;14.004;2022-10-23T16:29:04;8.87;;;6.53;;
3259;SDS011;22469;48.150;14.004;2022-10-23T16:31:33;6.60;;;5.97;;
3259;SDS011;22469;48.150;14.004;2022-10-23T16:34:01;6.20;;;5.70;;
3259;SDS011;22469;48.150;14.004;2022-10-23T16:36:30;8.57;;;7.27;;
3259;SDS011;22469;48.150;14.004;2022-10-23T16:39:00;7.10;;;6.57;;
3259;SDS011;22469;48.150;14.004;2022-10-23T16:41:29;6.60;;;6.20;;
3259;SDS011;22469;48.150;14.004;2022-10-23T16:43:56;6.40;;;5.80;;
3259;SDS011;22469;48.150;14.004;2022-10-23T16:46:24;10.43;;;9.53;;
3259;SDS011;22469;48.150;14.004;2022-10-23T16:48:51;15.47;;;10.80;;
3259;SDS011;22469;48.150;14.004;2022-10-23T16:51:20;15.73;;;11.47;;
3259;SDS011;22469;48.150;14.004;2022-10-23T16:53:51;12.70;;;11.27;;
3259;SDS011;22469;48.150;14.004;2022-10-23T16:56:20;13.57;;;11.40;;